createdAt,value
2018-01-14T00:00:46.999Z,83.52
2018-01-14T00:01:46.756Z,83.66
2018-01-14T00:02:47.040Z,83.52
2018-01-14T00:03:47.024Z,83.47
2018-01-14T00:04:46.797Z,83.56
2018-01-14T00:05:47.067Z,83.28
2018-01-14T00:06:47.081Z,83.18
2018-01-14T00:07:46.825Z,82.71
2018-01-14T00:08:46.841Z,83.56
2018-01-14T00:09:46.854Z,83.52
2018-01-14T00:10:47.131Z,83.9
2018-01-14T00:11:46.879Z,83.81
2018-01-14T00:12:47.142Z,84.66
2018-01-14T00:13:47.155Z,84.19
2018-01-14T00:14:47.185Z,83.62
2018-01-14T00:15:47.189Z,83.05
2018-01-14T00:16:47.196Z,83.24
2018-01-14T00:17:47.210Z,83.71
2018-01-14T00:18:47.223Z,83.43
2018-01-14T00:19:47.237Z,83
2018-01-14T00:20:46.997Z,82.52
2018-01-14T00:21:47.011Z,82.43
2018-01-14T00:22:47.279Z,82.24
2018-01-14T00:23:47.289Z,82.81
2018-01-14T00:24:47.051Z,82.52
2018-01-14T00:25:47.315Z,81.76
2018-01-14T00:26:47.081Z,81.67
2018-01-14T00:27:47.343Z,81.29
2018-01-14T00:28:47.354Z,81.67
2018-01-14T00:29:47.117Z,81.67
2018-01-14T00:30:47.180Z,81.67
2018-01-14T00:31:47.140Z,81.76
2018-01-14T00:32:47.406Z,82.05
2018-01-14T00:33:47.425Z,81.2
2018-01-14T00:34:47.442Z,81.76
2018-01-14T00:35:47.545Z,81.67
2018-01-14T00:36:47.209Z,82.05
2018-01-14T00:37:47.474Z,81.76
2018-01-14T00:38:47.490Z,81.57
2018-01-14T00:39:47.249Z,82.33
2018-01-14T00:40:47.513Z,82.2
2018-01-14T00:41:47.525Z,82.33
2018-01-14T00:42:47.304Z,82.52
2018-01-14T00:43:47.553Z,81.95
2018-01-14T00:44:47.568Z,81.76
2018-01-14T00:45:47.632Z,81.76
2018-01-14T00:46:47.591Z,81.67
2018-01-14T00:47:47.610Z,82.14
2018-01-14T00:48:47.367Z,81.76
2018-01-14T00:49:47.382Z,82.24
2018-01-14T00:50:47.649Z,82.86
2018-01-14T00:51:47.674Z,82.67
2018-01-14T00:52:47.670Z,82.24
2018-01-14T00:53:47.433Z,82.33
2018-01-14T00:54:47.444Z,82.62
2018-01-14T00:55:47.711Z,81.76
2018-01-14T00:56:47.730Z,82.14
2018-01-14T00:57:47.487Z,81.67
2018-01-14T00:58:47.499Z,81.2
2018-01-14T00:59:47.764Z,81.01
2018-01-14T01:00:47.576Z,81.01
2018-01-14T01:01:47.792Z,81.29
2018-01-14T01:02:47.805Z,81.2
2018-01-14T01:03:47.816Z,82.14
2018-01-14T01:04:47.834Z,81.2
2018-01-14T01:05:47.594Z,81.38
2018-01-14T01:06:47.605Z,81.01
2018-01-14T01:07:47.619Z,81.01
2018-01-14T01:08:47.639Z,80.63
2018-01-14T01:09:47.646Z,80.91
2018-01-14T01:10:47.931Z,80.72
2018-01-14T01:11:47.931Z,81.1
2018-01-14T01:12:47.687Z,81.67
2018-01-14T01:13:47.961Z,81.86
2018-01-14T01:14:47.970Z,81.95
2018-01-14T01:15:47.779Z,81.29
2018-01-14T01:16:47.993Z,81.01
2018-01-14T01:17:48.008Z,81.95
2018-01-14T01:18:47.792Z,81.86
2018-01-14T01:19:48.034Z,81.67
2018-01-14T01:20:48.043Z,82.24
2018-01-14T01:21:48.060Z,83.09
2018-01-14T01:22:48.071Z,83.18
2018-01-14T01:23:48.088Z,82.9
2018-01-14T01:24:48.112Z,82.62
2018-01-14T01:25:47.869Z,82.62
2018-01-14T01:26:47.874Z,83.05
2018-01-14T01:27:48.158Z,83.43
2018-01-14T01:28:48.153Z,83.52
2018-01-14T01:29:47.914Z,83.43
2018-01-14T01:30:47.973Z,83.81
2018-01-14T01:31:48.190Z,84.28
2018-01-14T01:32:48.202Z,83.33
2018-01-14T01:33:47.966Z,83.52
2018-01-14T01:34:48.228Z,83.14
2018-01-14T01:35:48.242Z,83.24
2018-01-14T01:36:48.008Z,83
2018-01-14T01:37:48.272Z,82.71
2018-01-14T01:38:48.034Z,82.43
2018-01-14T01:39:48.299Z,82.86
2018-01-14T01:40:48.057Z,82.71
2018-01-14T01:41:48.072Z,82.57
2018-01-14T01:42:48.339Z,82.29
2018-01-14T01:43:48.098Z,82.43
2018-01-14T01:44:48.364Z,83.05
2018-01-14T01:45:48.278Z,84.19
2018-01-14T01:46:48.417Z,84.19
2018-01-14T01:47:48.151Z,84.28
2018-01-14T01:48:48.165Z,84
2018-01-14T01:49:48.433Z,84
2018-01-14T01:50:48.446Z,83.33
2018-01-14T01:51:48.457Z,83.14
2018-01-14T01:52:48.470Z,83.43
2018-01-14T01:53:48.244Z,82.95
2018-01-14T01:54:48.243Z,83.33
2018-01-14T01:55:48.509Z,83.52
2018-01-14T01:56:48.524Z,83.43
2018-01-14T01:57:48.538Z,82.76
2018-01-14T01:58:48.294Z,83.43
2018-01-14T01:59:48.560Z,83.43
2018-01-14T02:00:48.627Z,83.33
2018-01-14T02:01:48.586Z,83.43
2018-01-14T02:02:48.348Z,83.52
2018-01-14T02:03:48.616Z,82.86
2018-01-14T02:04:48.624Z,82.67
2018-01-14T02:05:48.639Z,82.57
2018-01-14T02:06:48.650Z,82.57
2018-01-14T02:07:48.666Z,82.67
2018-01-14T02:08:48.681Z,82.48
2018-01-14T02:09:48.691Z,82.67
2018-01-14T02:10:48.710Z,82.1
2018-01-14T02:11:48.719Z,82.29
2018-01-14T02:12:48.730Z,81.72
2018-01-14T02:13:48.740Z,81.63
2018-01-14T02:14:48.759Z,81.82
2018-01-14T02:15:48.821Z,82.2
2018-01-14T02:16:48.527Z,82.01
2018-01-14T02:17:48.543Z,81.63
2018-01-14T02:18:48.555Z,81.53
2018-01-14T02:19:48.569Z,81.25
2018-01-14T02:20:48.829Z,82.1
2018-01-14T02:21:48.848Z,81.15
2018-01-14T02:22:48.609Z,82.14
2018-01-14T02:23:48.620Z,82.39
2018-01-14T02:24:48.890Z,82.29
2018-01-14T02:25:48.899Z,82.48
2018-01-14T02:26:48.911Z,82.48
2018-01-14T02:27:48.672Z,82.29
2018-01-14T02:28:48.684Z,82.39
2018-01-14T02:29:48.960Z,81.82
2018-01-14T02:30:48.766Z,81.63
2018-01-14T02:31:48.725Z,81.63
2018-01-14T02:32:48.988Z,81.86
2018-01-14T02:33:49.003Z,81.57
2018-01-14T02:34:49.013Z,82.14
2018-01-14T02:35:49.079Z,81.86
2018-01-14T02:36:48.788Z,81.92
2018-01-14T02:37:49.057Z,81.48
2018-01-14T02:38:48.813Z,82.05
2018-01-14T02:39:49.080Z,81.29
2018-01-14T02:40:48.838Z,81.95
2018-01-14T02:41:49.113Z,81.95
2018-01-14T02:42:49.118Z,81.29
2018-01-14T02:43:49.206Z,81.29
2018-01-14T02:44:48.891Z,81.1
2018-01-14T02:45:48.955Z,81.2
2018-01-14T02:46:49.194Z,81.29
2018-01-14T02:47:49.186Z,81.86
2018-01-14T02:48:49.197Z,81.86
2018-01-14T02:49:48.958Z,81.57
2018-01-14T02:50:48.971Z,81.86
2018-01-14T02:51:49.245Z,82.14
2018-01-14T02:52:49.256Z,81.76
2018-01-14T02:53:49.012Z,81.67
2018-01-14T02:54:49.025Z,81.57
2018-01-14T02:55:49.288Z,81.48
2018-01-14T02:56:49.305Z,81.76
2018-01-14T02:57:49.064Z,81.76
2018-01-14T02:58:49.330Z,82.05
2018-01-14T02:59:49.088Z,81.67
2018-01-14T03:00:49.406Z,81.2
2018-01-14T03:01:49.364Z,81.29
2018-01-14T03:02:49.481Z,81.38
2018-01-14T03:03:49.396Z,81.1
2018-01-14T03:04:49.153Z,80.91
2018-01-14T03:05:49.168Z,81.01
2018-01-14T03:06:49.435Z,81.1
2018-01-14T03:07:49.542Z,81.2
2018-01-14T03:08:49.458Z,81.2
2018-01-14T03:09:49.217Z,81.67
2018-01-14T03:10:49.483Z,81.76
2018-01-14T03:11:49.245Z,81.86
2018-01-14T03:12:49.513Z,81.86
2018-01-14T03:13:49.272Z,82.05
2018-01-14T03:14:49.284Z,81.86
2018-01-14T03:15:49.298Z,81.76
2018-01-14T03:16:49.310Z,81.57
2018-01-14T03:17:49.624Z,81.76
2018-01-14T03:18:49.336Z,81.57
2018-01-14T03:19:49.352Z,81.76
2018-01-14T03:20:49.616Z,81.67
2018-01-14T03:21:49.628Z,81.86
2018-01-14T03:22:49.644Z,81.2
2018-01-14T03:23:49.404Z,81.1
2018-01-14T03:24:49.416Z,80.63
2018-01-14T03:25:49.686Z,80.91
2018-01-14T03:26:49.444Z,81.1
2018-01-14T03:27:49.455Z,81.2
2018-01-14T03:28:49.720Z,81.38
2018-01-14T03:29:49.482Z,80.82
2018-01-14T03:30:49.499Z,80.72
2018-01-14T03:31:49.509Z,80.63
2018-01-14T03:32:49.572Z,80.91
2018-01-14T03:33:49.792Z,81.29
2018-01-14T03:34:49.801Z,80.91
2018-01-14T03:35:49.561Z,80.63
2018-01-14T03:36:49.575Z,80.82
2018-01-14T03:37:49.964Z,81.2
2018-01-14T03:38:49.601Z,82.14
2018-01-14T03:39:49.616Z,81.1
2018-01-14T03:40:49.880Z,81.76
2018-01-14T03:41:49.646Z,82.48
2018-01-14T03:42:49.654Z,82.57
2018-01-14T03:43:49.669Z,82.48
2018-01-14T03:44:49.936Z,82.95
2018-01-14T03:45:49.950Z,82.95
2018-01-14T03:46:49.956Z,82.48
2018-01-14T03:47:49.773Z,82.29
2018-01-14T03:48:49.741Z,81.92
2018-01-14T03:49:49.995Z,81.72
2018-01-14T03:50:50.011Z,81.95
2018-01-14T03:51:50.027Z,81.67
2018-01-14T03:52:50.036Z,81.95
2018-01-14T03:53:49.799Z,81.76
2018-01-14T03:54:49.808Z,81.38
2018-01-14T03:55:50.074Z,81.29
2018-01-14T03:56:50.087Z,80.72
2018-01-14T03:57:50.100Z,80.25
2018-01-14T03:58:50.113Z,80.34
2018-01-14T03:59:50.125Z,80.34
2018-01-14T04:00:50.139Z,80.72
2018-01-14T04:01:50.158Z,80.72
2018-01-14T04:02:50.214Z,81.1
2018-01-14T04:03:49.929Z,80.82
2018-01-14T04:04:49.942Z,81.82
2018-01-14T04:05:50.230Z,82.01
2018-01-14T04:06:49.968Z,81.72
2018-01-14T04:07:50.231Z,81.76
2018-01-14T04:08:49.993Z,81.48
2018-01-14T04:09:50.258Z,80.82
2018-01-14T04:10:50.269Z,81.01
2018-01-14T04:11:50.284Z,80.44
2018-01-14T04:12:50.296Z,80.63
2018-01-14T04:13:50.057Z,80.44
2018-01-14T04:14:50.324Z,80.34
2018-01-14T04:15:50.085Z,80.63
2018-01-14T04:16:50.349Z,80.91
2018-01-14T04:17:50.374Z,80.63
2018-01-14T04:18:50.175Z,80.53
2018-01-14T04:19:50.138Z,79.96
2018-01-14T04:20:50.152Z,80.06
2018-01-14T04:21:50.417Z,80.06
2018-01-14T04:22:50.179Z,80.06
2018-01-14T04:23:50.448Z,80.25
2018-01-14T04:24:50.657Z,80.91
2018-01-14T04:25:50.217Z,79.96
2018-01-14T04:26:50.482Z,80.82
2018-01-14T04:27:50.496Z,80.87
2018-01-14T04:28:50.356Z,81.06
2018-01-14T04:29:50.519Z,81.06
2018-01-14T04:30:50.534Z,81.1
2018-01-14T04:31:50.296Z,80.87
2018-01-14T04:32:50.560Z,80.96
2018-01-14T04:33:50.372Z,81.92
2018-01-14T04:34:50.586Z,81.53
2018-01-14T04:35:50.349Z,81.63
2018-01-14T04:36:50.360Z,80.96
2018-01-14T04:37:50.374Z,81.15
2018-01-14T04:38:50.387Z,80.53
2018-01-14T04:39:50.409Z,80.34
2018-01-14T04:40:50.412Z,80.15
2018-01-14T04:41:50.427Z,80.06
2018-01-14T04:42:50.439Z,80.63
2018-01-14T04:43:50.551Z,80.15
2018-01-14T04:44:50.716Z,79.68
2018-01-14T04:45:50.478Z,80.15
2018-01-14T04:46:50.741Z,79.87
2018-01-14T04:47:50.501Z,80.25
2018-01-14T04:48:50.564Z,80.82
2018-01-14T04:49:50.776Z,79.96
2018-01-14T04:50:50.541Z,79.96
2018-01-14T04:51:50.810Z,79.96
2018-01-14T04:52:50.820Z,80.34
2018-01-14T04:53:50.583Z,81.1
2018-01-14T04:54:50.848Z,81.82
2018-01-14T04:55:50.863Z,82.29
2018-01-14T04:56:50.621Z,82.86
2018-01-14T04:57:50.635Z,82.48
2018-01-14T04:58:50.898Z,82.48
2018-01-14T04:59:50.910Z,82.67
2018-01-14T05:00:50.926Z,83.05
2018-01-14T05:01:50.685Z,82.39
2018-01-14T05:02:50.702Z,82.62
2018-01-14T05:03:51.026Z,81.44
2018-01-14T05:04:50.977Z,81.57
2018-01-14T05:05:50.987Z,81.67
2018-01-14T05:06:51.004Z,81.86
2018-01-14T05:07:51.035Z,81.86
2018-01-14T05:08:51.026Z,81.48
2018-01-14T05:09:51.038Z,81.67
2018-01-14T05:10:51.052Z,82.05
2018-01-14T05:11:51.065Z,81.76
2018-01-14T05:12:51.080Z,81.76
2018-01-14T05:13:51.092Z,82.05
2018-01-14T05:14:51.120Z,81.67
2018-01-14T05:15:50.868Z,81.67
2018-01-14T05:16:51.139Z,81.86
2018-01-14T05:17:50.895Z,82.62
2018-01-14T05:18:51.155Z,82.33
2018-01-14T05:19:51.317Z,82.43
2018-01-14T05:20:51.179Z,81.48
2018-01-14T05:21:51.198Z,82.62
2018-01-14T05:22:51.272Z,82.71
2018-01-14T05:23:51.229Z,81.57
2018-01-14T05:24:50.984Z,81.95
2018-01-14T05:25:51.251Z,82.05
2018-01-14T05:26:51.008Z,81.95
2018-01-14T05:27:51.023Z,81.67
2018-01-14T05:28:51.297Z,81.76
2018-01-14T05:29:51.405Z,81.86
2018-01-14T05:30:51.316Z,81.29
2018-01-14T05:31:51.076Z,80.91
2018-01-14T05:32:51.343Z,80.34
2018-01-14T05:33:51.102Z,80.72
2018-01-14T05:34:51.416Z,80.53
2018-01-14T05:35:51.382Z,80.82
2018-01-14T05:36:51.141Z,79.96
2018-01-14T05:37:51.154Z,80.82
2018-01-14T05:38:51.431Z,80.53
2018-01-14T05:39:51.182Z,80.53
2018-01-14T05:40:51.451Z,80.91
2018-01-14T05:41:51.208Z,81.01
2018-01-14T05:42:51.470Z,81.1
2018-01-14T05:43:51.488Z,80.63
2018-01-14T05:44:51.500Z,80.15
2018-01-14T05:45:51.510Z,79.96
2018-01-14T05:46:51.531Z,79.96
2018-01-14T05:47:51.292Z,80.15
2018-01-14T05:48:51.548Z,80.15
2018-01-14T05:49:51.362Z,79.96
2018-01-14T05:50:51.583Z,80.06
2018-01-14T05:51:51.592Z,79.68
2018-01-14T05:52:51.605Z,79.58
2018-01-14T05:53:51.366Z,79.58
2018-01-14T05:54:51.632Z,79.39
2018-01-14T05:55:51.395Z,79.3
2018-01-14T05:56:51.406Z,79.11
2018-01-14T05:57:51.420Z,79.39
2018-01-14T05:58:51.683Z,79.58
2018-01-14T05:59:51.496Z,79.87
2018-01-14T06:00:51.458Z,80.34
2018-01-14T06:01:51.723Z,79.96
2018-01-14T06:02:51.738Z,80.34
2018-01-14T06:03:51.749Z,79.68
2018-01-14T06:04:51.814Z,79.96
2018-01-14T06:05:51.525Z,80.15
2018-01-14T06:06:51.792Z,80.34
2018-01-14T06:07:51.817Z,80.34
2018-01-14T06:08:51.570Z,80.34
2018-01-14T06:09:51.834Z,80.72
2018-01-14T06:10:51.593Z,80.82
2018-01-14T06:11:51.860Z,80.34
2018-01-14T06:12:51.619Z,80.82
2018-01-14T06:13:51.884Z,80.53
2018-01-14T06:14:52.000Z,80.82
2018-01-14T06:15:51.661Z,80.63
2018-01-14T06:16:51.673Z,80.82
2018-01-14T06:17:51.940Z,80.86
2018-01-14T06:18:51.952Z,80.48
2018-01-14T06:19:51.763Z,81.01
2018-01-14T06:20:51.729Z,80.76
2018-01-14T06:21:51.733Z,81.29
2018-01-14T06:22:51.753Z,81.1
2018-01-14T06:23:51.767Z,80.86
2018-01-14T06:24:52.033Z,81.14
2018-01-14T06:25:51.793Z,81.14
2018-01-14T06:26:51.817Z,81.24
2018-01-14T06:27:51.818Z,81.01
2018-01-14T06:28:52.086Z,81.14
2018-01-14T06:29:51.848Z,81.14
2018-01-14T06:30:52.115Z,81.14
2018-01-14T06:31:52.127Z,81.62
2018-01-14T06:32:51.888Z,81.76
2018-01-14T06:33:52.149Z,82.09
2018-01-14T06:34:52.212Z,81.9
2018-01-14T06:35:52.177Z,81.71
2018-01-14T06:36:52.191Z,82.09
2018-01-14T06:37:51.952Z,81.52
2018-01-14T06:38:52.217Z,81.95
2018-01-14T06:39:52.228Z,82.09
2018-01-14T06:40:52.247Z,82.09
2018-01-14T06:41:52.259Z,81.99
2018-01-14T06:42:52.272Z,81.9
2018-01-14T06:43:52.302Z,82.18
2018-01-14T06:44:52.299Z,81.33
2018-01-14T06:45:52.312Z,81.62
2018-01-14T06:46:52.334Z,81.52
2018-01-14T06:47:52.342Z,81.52
2018-01-14T06:48:52.104Z,82.56
2018-01-14T06:49:52.168Z,82.56
2018-01-14T06:50:52.129Z,82.47
2018-01-14T06:51:52.399Z,82.37
2018-01-14T06:52:52.410Z,82.66
2018-01-14T06:53:52.426Z,83.04
2018-01-14T06:54:52.438Z,82.94
2018-01-14T06:55:52.449Z,82.94
2018-01-14T06:56:52.464Z,83.23
2018-01-14T06:57:52.475Z,83.04
2018-01-14T06:58:52.235Z,83.04
2018-01-14T06:59:52.249Z,83.04
2018-01-14T07:00:52.265Z,82.56
2018-01-14T07:01:52.527Z,82.56
2018-01-14T07:02:52.552Z,82.75
2018-01-14T07:03:52.305Z,82.37
2018-01-14T07:04:52.619Z,82.75
2018-01-14T07:05:52.336Z,83.51
2018-01-14T07:06:52.597Z,83.32
2018-01-14T07:07:52.610Z,83.89
2018-01-14T07:08:52.373Z,83.04
2018-01-14T07:09:52.638Z,83.42
2018-01-14T07:10:52.415Z,83.61
2018-01-14T07:11:52.412Z,83.32
2018-01-14T07:12:52.431Z,83.89
2018-01-14T07:13:52.439Z,83.8
2018-01-14T07:14:52.705Z,83.98
2018-01-14T07:15:52.715Z,83.89
2018-01-14T07:16:52.731Z,83.8
2018-01-14T07:17:52.495Z,83.7
2018-01-14T07:18:52.763Z,83.51
2018-01-14T07:19:52.822Z,82.85
2018-01-14T07:20:52.787Z,82.75
2018-01-14T07:21:52.800Z,82.94
2018-01-14T07:22:52.561Z,82.56
2018-01-14T07:23:52.826Z,83.32
2018-01-14T07:24:52.589Z,84.36
2018-01-14T07:25:52.860Z,83.89
2018-01-14T07:26:52.615Z,84.08
2018-01-14T07:27:52.626Z,84.08
2018-01-14T07:28:52.642Z,83.89
2018-01-14T07:29:52.906Z,83.8
2018-01-14T07:30:52.923Z,84.36
2018-01-14T07:31:52.682Z,84.27
2018-01-14T07:32:52.698Z,84.08
2018-01-14T07:33:52.709Z,84.27
2018-01-14T07:34:53.024Z,84.08
2018-01-14T07:35:52.989Z,84.17
2018-01-14T07:36:52.751Z,83.7
2018-01-14T07:37:53.017Z,83.51
2018-01-14T07:38:53.040Z,83.7
2018-01-14T07:39:52.792Z,84.08
2018-01-14T07:40:52.803Z,84.08
2018-01-14T07:41:52.818Z,83.51
2018-01-14T07:42:53.084Z,83.7
2018-01-14T07:43:53.098Z,83.04
2018-01-14T07:44:53.113Z,82.75
2018-01-14T07:45:52.872Z,82.94
2018-01-14T07:46:53.136Z,82.28
2018-01-14T07:47:52.897Z,82.56
2018-01-14T07:48:52.912Z,82.75
2018-01-14T07:49:53.226Z,82.18
2018-01-14T07:50:53.190Z,82.75
2018-01-14T07:51:53.202Z,82.37
2018-01-14T07:52:53.213Z,82.56
2018-01-14T07:53:53.227Z,82.37
2018-01-14T07:54:53.244Z,82.56
2018-01-14T07:55:53.272Z,82.56
2018-01-14T07:56:53.274Z,81.66
2018-01-14T07:57:53.292Z,82.18
2018-01-14T07:58:53.306Z,81.9
2018-01-14T07:59:53.062Z,81.62
2018-01-14T08:00:53.076Z,82.75
2018-01-14T08:01:53.088Z,83.8
2018-01-14T08:02:53.411Z,83.61
2018-01-14T08:03:53.371Z,83.32
2018-01-14T08:04:53.430Z,84.08
2018-01-14T08:05:53.145Z,84.46
2018-01-14T08:06:53.160Z,84.08
2018-01-14T08:07:53.172Z,84.27
2018-01-14T08:08:53.438Z,84.84
2018-01-14T08:09:53.450Z,84.84
2018-01-14T08:10:53.462Z,84.84
2018-01-14T08:11:53.476Z,85.22
2018-01-14T08:12:53.492Z,85.13
2018-01-14T08:13:53.505Z,84.94
2018-01-14T08:14:53.524Z,84.84
2018-01-14T08:15:53.535Z,84.84
2018-01-14T08:16:53.291Z,84.74
2018-01-14T08:17:53.308Z,84.84
2018-01-14T08:18:53.319Z,85.78
2018-01-14T08:19:53.635Z,85.78
2018-01-14T08:20:53.602Z,86.07
2018-01-14T08:21:53.358Z,85.03
2018-01-14T08:22:53.629Z,85.13
2018-01-14T08:23:53.637Z,85.31
2018-01-14T08:24:53.657Z,85.69
2018-01-14T08:25:53.663Z,85.88
2018-01-14T08:26:53.429Z,85.78
2018-01-14T08:27:53.443Z,85.6
2018-01-14T08:28:53.456Z,86.26
2018-01-14T08:29:53.718Z,86.07
2018-01-14T08:30:53.482Z,86.45
2018-01-14T08:31:53.496Z,86.55
2018-01-14T08:32:53.760Z,86.64
2018-01-14T08:33:53.522Z,86.74
2018-01-14T08:34:53.587Z,86.45
2018-01-14T08:35:53.801Z,86.35
2018-01-14T08:36:53.810Z,86.07
2018-01-14T08:37:53.574Z,86.07
2018-01-14T08:38:53.586Z,86.16
2018-01-14T08:39:53.856Z,86.64
2018-01-14T08:40:53.615Z,86.55
2018-01-14T08:41:53.879Z,86.16
2018-01-14T08:42:53.894Z,86.26
2018-01-14T08:43:53.657Z,86.35
2018-01-14T08:44:53.675Z,86.26
2018-01-14T08:45:53.937Z,86.35
2018-01-14T08:46:53.696Z,86.16
2018-01-14T08:47:53.958Z,86.16
2018-01-14T08:48:53.722Z,85.6
2018-01-14T08:49:54.143Z,86.07
2018-01-14T08:50:54.001Z,86.35
2018-01-14T08:51:53.758Z,86.07
2018-01-14T08:52:53.774Z,85.69
2018-01-14T08:53:54.040Z,85.69
2018-01-14T08:54:54.053Z,86.26
2018-01-14T08:55:54.061Z,86.35
2018-01-14T08:56:54.081Z,86.26
2018-01-14T08:57:54.088Z,86.35
2018-01-14T08:58:53.868Z,86.35
2018-01-14T08:59:54.118Z,86.16
2018-01-14T09:00:54.133Z,86.45
2018-01-14T09:01:54.149Z,85.97
2018-01-14T09:02:54.164Z,86.74
2018-01-14T09:03:54.176Z,86.45
2018-01-14T09:04:54.239Z,86.64
2018-01-14T09:05:54.207Z,86.26
2018-01-14T09:06:54.212Z,86.35
2018-01-14T09:07:54.242Z,85.74
2018-01-14T09:08:53.993Z,85.83
2018-01-14T09:09:54.259Z,85.45
2018-01-14T09:10:54.269Z,85.93
2018-01-14T09:11:54.286Z,85.83
2018-01-14T09:12:54.299Z,86.4
2018-01-14T09:13:54.310Z,85.93
2018-01-14T09:14:54.176Z,86.59
2018-01-14T09:15:54.339Z,85.93
2018-01-14T09:16:54.358Z,86.49
2018-01-14T09:17:54.369Z,86.55
2018-01-14T09:18:54.379Z,86.93
2018-01-14T09:19:54.195Z,87.77
2018-01-14T09:20:54.409Z,87.4
2018-01-14T09:21:54.420Z,87.87
2018-01-14T09:22:54.188Z,87.87
2018-01-14T09:23:54.201Z,87.68
2018-01-14T09:24:54.460Z,87.77
2018-01-14T09:25:54.478Z,87.59
2018-01-14T09:26:54.241Z,87.49
2018-01-14T09:27:54.504Z,87.77
2018-01-14T09:28:54.266Z,88.35
2018-01-14T09:29:54.277Z,88.82
2018-01-14T09:30:54.543Z,88.35
2018-01-14T09:31:54.304Z,88.49
2018-01-14T09:32:54.570Z,89.72
2018-01-14T09:33:54.330Z,89.25
2018-01-14T09:34:54.354Z,90.29
2018-01-14T09:35:54.671Z,89.72
2018-01-14T09:36:54.621Z,89.63
2018-01-14T09:37:54.636Z,89.34
2018-01-14T09:38:54.397Z,89.44
2018-01-14T09:39:54.670Z,89.44
2018-01-14T09:40:54.425Z,89.91
2018-01-14T09:41:54.448Z,89.72
2018-01-14T09:42:54.452Z,89.53
2018-01-14T09:43:54.464Z,90.2
2018-01-14T09:44:54.479Z,90.34
2018-01-14T09:45:54.492Z,90.29
2018-01-14T09:46:54.754Z,89.91
2018-01-14T09:47:54.828Z,90.1
2018-01-14T09:48:54.529Z,90.2
2018-01-14T09:49:54.792Z,90.29
2018-01-14T09:50:54.852Z,90.2
2018-01-14T09:51:54.867Z,90.1
2018-01-14T09:52:54.826Z,89.72
2018-01-14T09:53:54.587Z,90.1
2018-01-14T09:54:54.856Z,90.2
2018-01-14T09:55:54.617Z,90.1
2018-01-14T09:56:54.887Z,90.2
2018-01-14T09:57:54.642Z,89.91
2018-01-14T09:58:54.654Z,89.63
2018-01-14T09:59:54.918Z,89.34
2018-01-14T10:00:54.680Z,89.44
2018-01-14T10:01:54.947Z,89.72
2018-01-14T10:02:54.987Z,90.06
2018-01-14T10:03:54.972Z,90.72
2018-01-14T10:04:54.983Z,90.44
2018-01-14T10:05:55.046Z,90.53
2018-01-14T10:06:54.999Z,90.77
2018-01-14T10:07:55.013Z,90.2
2018-01-14T10:08:55.027Z,89.96
2018-01-14T10:09:54.790Z,90.39
2018-01-14T10:10:54.802Z,90.2
2018-01-14T10:11:54.817Z,90.39
2018-01-14T10:12:54.831Z,90.01
2018-01-14T10:13:54.842Z,90.2
2018-01-14T10:14:54.855Z,90.39
2018-01-14T10:15:55.121Z,90.67
2018-01-14T10:16:54.881Z,90.58
2018-01-14T10:17:54.922Z,90.48
2018-01-14T10:18:54.909Z,90.29
2018-01-14T10:19:55.172Z,90.39
2018-01-14T10:20:55.228Z,90.29
2018-01-14T10:21:54.942Z,90.1
2018-01-14T10:22:54.954Z,90.01
2018-01-14T10:23:54.971Z,89.63
2018-01-14T10:24:55.234Z,89.53
2018-01-14T10:25:55.320Z,89.44
2018-01-14T10:26:55.278Z,89.63
2018-01-14T10:27:55.025Z,89.44
2018-01-14T10:28:55.036Z,89.63
2018-01-14T10:29:55.051Z,89.72
2018-01-14T10:30:55.315Z,89.53
2018-01-14T10:31:55.077Z,89.63
2018-01-14T10:32:55.090Z,89.63
2018-01-14T10:33:55.100Z,88.96
2018-01-14T10:34:55.114Z,88.68
2018-01-14T10:35:55.430Z,88.4
2018-01-14T10:36:55.150Z,88.96
2018-01-14T10:37:55.407Z,89.15
2018-01-14T10:38:55.165Z,89.15
2018-01-14T10:39:55.179Z,89.53
2018-01-14T10:40:55.193Z,89.53
2018-01-14T10:41:55.204Z,89.91
2018-01-14T10:42:55.470Z,89.34
2018-01-14T10:43:55.480Z,89.44
2018-01-14T10:44:55.492Z,89.63
2018-01-14T10:45:55.527Z,88.96
2018-01-14T10:46:55.519Z,89.44
2018-01-14T10:47:55.280Z,89.72
2018-01-14T10:48:55.543Z,88.68
2018-01-14T10:49:55.305Z,88.96
2018-01-14T10:50:55.628Z,88.59
2018-01-14T10:51:55.589Z,89.15
2018-01-14T10:52:55.598Z,89.15
2018-01-14T10:53:55.618Z,88.96
2018-01-14T10:54:55.372Z,88.59
2018-01-14T10:55:55.636Z,88.87
2018-01-14T10:56:55.646Z,89.53
2018-01-14T10:57:55.661Z,89.63
2018-01-14T10:58:55.421Z,89.06
2018-01-14T10:59:55.435Z,88.87
2018-01-14T11:00:55.700Z,88.21
2018-01-14T11:01:55.709Z,88.49
2018-01-14T11:02:55.476Z,88.59
2018-01-14T11:03:55.737Z,88.59
2018-01-14T11:04:55.501Z,87.92
2018-01-14T11:05:55.813Z,87.73
2018-01-14T11:06:55.774Z,87.83
2018-01-14T11:07:55.792Z,87.73
2018-01-14T11:08:55.805Z,88.4
2018-01-14T11:09:55.830Z,88.3
2018-01-14T11:10:55.580Z,88.59
2018-01-14T11:11:55.842Z,87.73
2018-01-14T11:12:55.606Z,88.21
2018-01-14T11:13:55.872Z,88.78
2018-01-14T11:14:55.885Z,87.83
2018-01-14T11:15:55.647Z,88.78
2018-01-14T11:16:55.660Z,88.96
2018-01-14T11:17:55.921Z,88.87
2018-01-14T11:18:55.685Z,87.73
2018-01-14T11:19:55.951Z,87.73
2018-01-14T11:20:55.713Z,88.21
2018-01-14T11:21:55.724Z,88.21
2018-01-14T11:22:55.886Z,88.3
2018-01-14T11:23:55.751Z,87.92
2018-01-14T11:24:56.018Z,88.4
2018-01-14T11:25:56.031Z,87.92
2018-01-14T11:26:56.042Z,88.02
2018-01-14T11:27:55.815Z,87.92
2018-01-14T11:28:56.078Z,88.35
2018-01-14T11:29:56.084Z,87.87
2018-01-14T11:30:56.102Z,87.87
2018-01-14T11:31:55.862Z,87.97
2018-01-14T11:32:55.871Z,87.77
2018-01-14T11:33:55.885Z,87.07
2018-01-14T11:34:56.152Z,87.77
2018-01-14T11:35:56.164Z,87.92
2018-01-14T11:36:55.949Z,88.06
2018-01-14T11:37:56.244Z,87.68
2018-01-14T11:38:56.207Z,87.97
2018-01-14T11:39:55.965Z,87.77
2018-01-14T11:40:56.231Z,87.59
2018-01-14T11:41:56.244Z,87.21
2018-01-14T11:42:56.047Z,86.88
2018-01-14T11:43:56.276Z,87.68
2018-01-14T11:44:56.284Z,87.02
2018-01-14T11:45:56.314Z,87.4
2018-01-14T11:46:56.066Z,86.83
2018-01-14T11:47:56.329Z,86.93
2018-01-14T11:48:56.342Z,86.55
2018-01-14T11:49:56.107Z,86.64
2018-01-14T11:50:56.414Z,86.93
2018-01-14T11:51:56.163Z,87.12
2018-01-14T11:52:56.448Z,86.64
2018-01-14T11:53:56.160Z,86.45
2018-01-14T11:54:56.424Z,86.55
2018-01-14T11:55:56.190Z,86.16
2018-01-14T11:56:56.451Z,86.26
2018-01-14T11:57:56.521Z,86.26
2018-01-14T11:58:56.485Z,86.16
2018-01-14T11:59:56.493Z,86.35
2018-01-14T12:00:56.255Z,86.45
2018-01-14T12:01:56.265Z,85.69
2018-01-14T12:02:56.430Z,85.31
2018-01-14T12:03:56.296Z,85.88
2018-01-14T12:04:56.312Z,85.78
2018-01-14T12:05:56.576Z,85.22
2018-01-14T12:06:56.337Z,85.31
2018-01-14T12:07:56.403Z,84.65
2018-01-14T12:08:56.618Z,84.27
2018-01-14T12:09:56.632Z,84.84
2018-01-14T12:10:56.645Z,85.36
2018-01-14T12:11:56.661Z,84.88
2018-01-14T12:12:56.671Z,84.78
2018-01-14T12:13:56.687Z,84.98
2018-01-14T12:14:56.449Z,84.88
2018-01-14T12:15:56.712Z,85.17
2018-01-14T12:16:56.476Z,84.74
2018-01-14T12:17:56.742Z,84.69
2018-01-14T12:18:56.758Z,85.03
2018-01-14T12:19:56.515Z,84.74
2018-01-14T12:20:56.787Z,84.94
2018-01-14T12:21:56.798Z,84.84
2018-01-14T12:22:56.610Z,84.74
2018-01-14T12:23:56.825Z,85.5
2018-01-14T12:24:56.840Z,85.69
2018-01-14T12:25:56.601Z,85.13
2018-01-14T12:26:56.865Z,85.13
2018-01-14T12:27:56.879Z,85.31
2018-01-14T12:28:56.901Z,85.5
2018-01-14T12:29:56.910Z,85.17
2018-01-14T12:30:56.673Z,85.41
2018-01-14T12:31:56.683Z,84.78
2018-01-14T12:32:56.953Z,84.5
2018-01-14T12:33:56.979Z,84.22
2018-01-14T12:34:56.726Z,84.31
2018-01-14T12:35:56.736Z,83.84
2018-01-14T12:36:57.011Z,83.8
2018-01-14T12:37:56.864Z,83.61
2018-01-14T12:38:57.028Z,84.08
2018-01-14T12:39:56.796Z,84.08
2018-01-14T12:40:57.118Z,83.98
2018-01-14T12:41:57.073Z,84.17
2018-01-14T12:42:56.834Z,83.98
2018-01-14T12:43:57.097Z,84.65
2018-01-14T12:44:57.115Z,84.55
2018-01-14T12:45:57.127Z,84.46
2018-01-14T12:46:56.889Z,84.84
2018-01-14T12:47:57.154Z,84.55
2018-01-14T12:48:57.167Z,85.03
2018-01-14T12:49:56.927Z,84.84
2018-01-14T12:50:57.215Z,84.84
2018-01-14T12:51:57.208Z,84.84
2018-01-14T12:52:57.268Z,84.84
2018-01-14T12:53:56.982Z,85.13
2018-01-14T12:54:56.996Z,84.84
2018-01-14T12:55:57.008Z,85.03